Time,TemperatureF,DewpointF,PressureIn,WindDirection,WindDirectionDegrees,WindSpeedMPH,WindSpeedGustMPH,Humidity,HourlyPrecipIn,Conditions,Clouds,dailyrainin,SoftwareType,DateUTC
2013-04-26 00:02:00,60.0,35.0,30.21,SSE,160,8.0,10.0,39,-99.99,,,-99.99,,2013-04-26 05:02:00,
2013-04-26 00:12:00,60.0,35.0,30.21,SSE,160,8.0,10.0,39,-99.99,,,-99.99,,2013-04-26 05:12:00,
2013-04-26 00:22:00,60.0,35.0,30.21,SSE,160,8.0,10.0,39,-99.99,,,-99.99,,2013-04-26 05:22:00,
2013-04-26 00:32:00,59.0,34.0,30.21,SSE,165,6.0,10.0,39,-99.99,,,-99.99,,2013-04-26 05:32:00,
2013-04-26 00:42:00,59.0,35.0,30.21,South,180,8.0,11.0,41,-99.99,,,-99.99,,2013-04-26 05:42:00,
2013-04-26 00:52:00,59.0,35.0,30.21,South,180,8.0,11.0,41,-99.99,,,-99.99,,2013-04-26 05:52:00,
2013-04-26 01:02:00,59.0,35.0,30.21,SSW,195,10.0,16.0,40,-99.99,,,-99.99,,2013-04-26 06:02:00,
2013-04-26 01:11:00,59.0,35.0,30.21,SSW,195,10.0,13.0,41,-99.99,,,-99.99,,2013-04-26 06:11:00,
2013-04-26 01:21:00,59.0,35.0,30.21,SSW,195,10.0,13.0,41,-99.99,,,-99.99,,2013-04-26 06:21:00,
2013-04-26 01:32:00,60.0,35.0,30.19,SSW,200,15.0,21.0,39,-99.99,,,-99.99,,2013-04-26 06:32:00,
2013-04-26 01:42:00,60.0,35.0,30.18,South,190,16.0,21.0,39,-99.99,,,-99.99,,2013-04-26 06:42:00,
2013-04-26 01:52:00,60.0,35.0,30.18,South,190,16.0,21.0,39,-99.99,,,-99.99,,2013-04-26 06:52:00,
2013-04-26 02:01:00,60.0,38.0,30.21,SW,225,12.0,23.0,44,-99.99,,,-99.99,,2013-04-26 07:01:00,
2013-04-26 02:11:00,60.0,38.0,30.21,SW,215,11.0,17.0,45,-99.99,,,-99.99,,2013-04-26 07:11:00,
2013-04-26 02:22:00,60.0,38.0,30.21,SW,215,11.0,17.0,45,-99.99,,,-99.99,,2013-04-26 07:22:00,
2013-04-26 02:31:00,59.0,40.0,30.17,SSW,195,20.0,24.0,49,-99.99,,,-99.99,,2013-04-26 07:31:00,
2013-04-26 02:42:00,59.0,40.0,30.15,South,190,22.0,28.0,50,-99.99,,,-99.99,,2013-04-26 07:42:00,
2013-04-26 02:52:00,59.0,40.0,30.15,South,190,22.0,28.0,50,-99.99,,,-99.99,,2013-04-26 07:52:00,
2013-04-26 03:02:00,59.0,39.0,30.15,SSW,195,19.0,26.0,48,-99.99,,,-99.99,,2013-04-26 08:02:00,
2013-04-26 03:11:00,59.0,39.0,30.17,South,190,16.0,23.0,48,-99.99,,,-99.99,,2013-04-26 08:11:00,
2013-04-26 03:21:00,59.0,39.0,30.17,South,190,16.0,23.0,48,-99.99,,,-99.99,,2013-04-26 08:21:00,
2013-04-26 03:32:00,58.0,41.0,30.19,SSW,210,12.0,24.0,54,-99.99,,,-99.99,,2013-04-26 08:32:00,
2013-04-26 03:42:00,57.0,43.0,30.19,South,185,8.0,15.0,59,-99.99,,,-99.99,,2013-04-26 08:42:00,
2013-04-26 03:52:00,57.0,43.0,30.19,South,185,8.0,15.0,59,-99.99,,,-99.99,,2013-04-26 08:52:00,
2013-04-26 04:01:00,57.0,43.0,30.21,SSW,205,0.0,3.0,60,-99.99,,,-99.99,,2013-04-26 09:01:00,
2013-04-26 04:11:00,57.0,42.0,30.21,SW,230,5.0,10.0,58,-99.99,,,-99.99,,2013-04-26 09:11:00,
2013-04-26 04:21:00,57.0,42.0,30.21,SW,230,5.0,10.0,58,-99.99,,,-99.99,,2013-04-26 09:21:00,
2013-04-26 04:33:00,56.0,43.0,30.21,SE,145,4.0,4.0,61,-99.99,,,-99.99,,2013-04-26 09:33:00,
2013-04-26 04:42:00,57.0,42.0,30.20,ESE,105,3.0,5.0,57,-99.99,,,-99.99,,2013-04-26 09:42:00,
2013-04-26 04:53:00,57.0,42.0,30.20,ESE,105,3.0,5.0,57,-99.99,,,-99.99,,2013-04-26 09:53:00,
2013-04-26 05:03:00,57.0,41.0,30.18,SSE,155,10.0,11.0,56,-99.99,,,-99.99,,2013-04-26 10:03:00,
2013-04-26 05:12:00,57.0,42.0,30.18,SSE,160,8.0,12.0,56,-99.99,,,-99.99,,2013-04-26 10:12:00,
2013-04-26 05:23:00,57.0,42.0,30.18,SSE,160,8.0,12.0,56,-99.99,,,-99.99,,2013-04-26 10:23:00,
2013-04-26 05:33:00,57.0,41.0,30.18,SSE,165,8.0,14.0,55,-99.99,,,-99.99,,2013-04-26 10:33:00,
2013-04-26 05:42:00,57.0,41.0,30.19,SSE,155,7.0,12.0,54,-99.99,,,-99.99,,2013-04-26 10:42:00,
2013-04-26 05:52:00,57.0,41.0,30.19,SSE,155,7.0,12.0,54,-99.99,,,-99.99,,2013-04-26 10:52:00,
2013-04-26 06:02:00,57.0,42.0,30.24,NW,325,2.0,4.0,58,-99.99,,,-99.99,,2013-04-26 11:02:00,
2013-04-26 06:11:00,56.0,43.0,30.25,NW,315,0.0,3.0,61,-99.99,,,-99.99,,2013-04-26 11:11:00,
2013-04-26 06:22:00,56.0,43.0,30.25,NW,315,0.0,3.0,61,-99.99,,,-99.99,,2013-04-26 11:22:00,
2013-04-26 06:32:00,55.0,44.0,30.25,SSE,150,3.0,4.0,67,-99.99,,,-99.99,,2013-04-26 11:32:00,
2013-04-26 06:42:00,56.0,42.0,30.25,South,185,6.0,7.0,59,-99.99,,,-99.99,,2013-04-26 11:42:00,
2013-04-26 06:52:00,56.0,42.0,30.25,South,185,6.0,7.0,59,-99.99,,,-99.99,,2013-04-26 11:52:00,
2013-04-26 07:01:00,55.0,44.0,30.27,SW,225,5.0,7.0,65,-99.99,,,-99.99,,2013-04-26 12:01:00,
2013-04-26 07:11:00,55.0,44.0,30.28,SW,235,10.0,11.0,67,-99.99,,,-99.99,,2013-04-26 12:11:00,
2013-04-26 07:21:00,55.0,44.0,30.28,SW,235,10.0,11.0,67,-99.99,,,-99.99,,2013-04-26 12:21:00,
2013-04-26 07:32:00,54.0,42.0,30.29,SW,235,18.0,27.0,63,-99.99,,,-99.99,,2013-04-26 12:32:00,
2013-04-26 07:42:00,53.0,42.0,30.29,SW,230,18.0,23.0,66,-99.99,,,-99.99,,2013-04-26 12:42:00,
2013-04-26 07:52:00,53.0,42.0,30.29,SW,230,18.0,23.0,66,-99.99,,,-99.99,,2013-04-26 12:52:00,
2013-04-26 08:00:00,51.0,45.0,30.31,SW,225,9.0,14.0,82,-99.99,,,-99.99,,2013-04-26 13:00:00,
2013-04-26 08:01:00,51.0,43.0,30.28,SSW,210,7.0,15.0,75,-99.99,,,-99.99,,2013-04-26 13:01:00,
2013-04-26 08:11:00,50.0,44.0,30.27,SSW,195,7.0,9.0,78,-99.99,,,-99.99,,2013-04-26 13:11:00,
2013-04-26 08:21:00,50.0,44.0,30.27,SSW,195,7.0,9.0,78,-99.99,,,-99.99,,2013-04-26 13:21:00,
2013-04-26 08:32:00,51.0,45.0,30.30,SW,220,7.0,12.0,82,-99.99,,,-99.99,,2013-04-26 13:32:00,
2013-04-26 08:42:00,51.0,45.0,30.31,SW,225,9.0,14.0,82,-99.99,,,-99.99,,2013-04-26 13:42:00,
2013-04-26 08:52:00,51.0,45.0,30.31,SW,225,9.0,14.0,82,-99.99,,,-99.99,,2013-04-26 13:52:00,
2013-04-26 09:00:00,49.0,45.0,30.31,SSW,210,6.0,8.0,85,-99.99,,,-99.99,,2013-04-26 14:00:00,
2013-04-26 09:11:00,50.0,45.0,30.32,WSW,240,11.0,14.0,83,-99.99,,,-99.99,,2013-04-26 14:11:00,
2013-04-26 09:21:00,50.0,45.0,30.32,WSW,240,11.0,14.0,83,-99.99,,,-99.99,,2013-04-26 14:21:00,
2013-04-26 09:32:00,50.0,45.0,30.31,SSW,195,5.0,11.0,84,-99.99,,,-99.99,,2013-04-26 14:32:00,
2013-04-26 09:42:00,49.0,45.0,30.31,SSW,210,6.0,8.0,85,-99.99,,,-99.99,,2013-04-26 14:42:00,
2013-04-26 09:51:00,49.0,45.0,30.31,SSW,210,6.0,8.0,85,-99.99,,,-99.99,,2013-04-26 14:51:00,
2013-04-26 10:12:00,49.0,45.0,30.30,South,190,12.0,15.0,87,-99.99,,,-99.99,,2013-04-26 15:12:00,
2013-04-26 10:21:00,49.0,45.0,30.30,South,190,12.0,15.0,87,-99.99,,,-99.99,,2013-04-26 15:21:00,
2013-04-26 10:33:00,49.0,46.0,30.28,South,185,12.0,18.0,87,-99.99,,,-99.99,,2013-04-26 15:33:00,
2013-04-26 10:43:00,49.0,46.0,30.29,South,185,12.0,19.0,87,-99.99,,,-99.99,,2013-04-26 15:43:00,
2013-04-26 10:53:00,49.0,46.0,30.29,South,185,12.0,19.0,87,-99.99,,,-99.99,,2013-04-26 15:53:00,
2013-04-26 11:00:00,50.0,46.0,30.30,South,185,9.0,13.0,87,-99.99,,,-99.99,,2013-04-26 16:00:00,
2013-04-26 11:03:00,49.0,45.0,30.27,South,185,12.0,18.0,86,-99.99,,,-99.99,,2013-04-26 16:03:00,
2013-04-26 11:12:00,49.0,45.0,30.27,South,175,14.0,18.0,86,-99.99,,,-99.99,,2013-04-26 16:12:00,
2013-04-26 11:23:00,49.0,45.0,30.27,South,175,14.0,18.0,86,-99.99,,,-99.99,,2013-04-26 16:23:00,
2013-04-26 11:33:00,49.0,45.0,30.27,SSE,165,11.0,15.0,86,-99.99,,,-99.99,,2013-04-26 16:33:00,
2013-04-26 11:42:00,50.0,46.0,30.30,South,185,9.0,13.0,87,-99.99,,,-99.99,,2013-04-26 16:42:00,
2013-04-26 11:52:00,50.0,46.0,30.30,South,185,9.0,13.0,87,-99.99,,,-99.99,,2013-04-26 16:52:00,
2013-04-26 12:12:00,50.0,47.0,30.30,SSE,160,7.0,10.0,87,-99.99,,,-99.99,,2013-04-26 17:12:00,
2013-04-26 12:22:00,50.0,47.0,30.30,SSE,160,7.0,10.0,87,-99.99,,,-99.99,,2013-04-26 17:22:00,
2013-04-26 12:32:00,50.0,46.0,30.31,South,185,9.0,10.0,87,-99.99,,,-99.99,,2013-04-26 17:32:00,
2013-04-26 12:42:00,50.0,47.0,30.29,SSE,165,8.0,12.0,87,-99.99,,,-99.99,,2013-04-26 17:42:00,
2013-04-26 12:51:00,50.0,47.0,30.29,SSE,165,8.0,12.0,87,-99.99,,,-99.99,,2013-04-26 17:51:00,
2013-04-26 13:02:00,50.0,47.0,30.29,SSE,155,11.0,12.0,87,-99.99,,,-99.99,,2013-04-26 18:02:00,
2013-04-26 13:12:00,50.0,46.0,30.26,South,170,12.0,18.0,87,-99.99,,,-99.99,,2013-04-26 18:12:00,
2013-04-26 13:22:00,50.0,46.0,30.26,South,170,12.0,18.0,87,-99.99,,,-99.99,,2013-04-26 18:22:00,
2013-04-26 13:33:00,50.0,46.0,30.21,South,170,19.0,28.0,86,-99.99,,,-99.99,,2013-04-26 18:33:00,
2013-04-26 13:42:00,50.0,46.0,30.19,South,175,20.0,29.0,87,-99.99,,,-99.99,,2013-04-26 18:42:00,
2013-04-26 13:52:00,50.0,46.0,30.19,South,175,20.0,29.0,87,-99.99,,,-99.99,,2013-04-26 18:52:00,
2013-04-26 14:01:00,50.0,46.0,30.24,South,190,18.0,22.0,86,-99.99,,,-99.99,,2013-04-26 19:01:00,
2013-04-26 14:12:00,51.0,46.0,30.23,South,190,15.0,25.0,85,-99.99,,,-99.99,,2013-04-26 19:12:00,
2013-04-26 14:22:00,51.0,46.0,30.23,South,190,15.0,25.0,85,-99.99,,,-99.99,,2013-04-26 19:22:00,
2013-04-26 14:32:00,51.0,46.0,30.22,South,185,11.0,26.0,83,-99.99,,,-99.99,,2013-04-26 19:32:00,
2013-04-26 14:41:00,51.0,45.0,30.19,SSE,165,12.0,20.0,82,-99.99,,,-99.99,,2013-04-26 19:41:00,
2013-04-26 14:52:00,51.0,45.0,30.19,SSE,165,12.0,20.0,82,-99.99,,,-99.99,,2013-04-26 19:52:00,
2013-04-26 15:00:00,50.0,44.0,30.20,South,175,5.0,12.0,81,-99.99,,,-99.99,,2013-04-26 20:00:00,
2013-04-26 15:02:00,51.0,45.0,30.20,South,175,12.0,26.0,81,-99.99,,,-99.99,,2013-04-26 20:02:00,
2013-04-26 15:11:00,51.0,45.0,30.21,South,180,10.0,17.0,80,-99.99,,,-99.99,,2013-04-26 20:11:00,
2013-04-26 15:21:00,51.0,45.0,30.21,South,180,10.0,17.0,80,-99.99,,,-99.99,,2013-04-26 20:21:00,
2013-04-26 15:32:00,50.0,45.0,30.23,South,190,7.0,17.0,81,-99.99,,,-99.99,,2013-04-26 20:32:00,
2013-04-26 15:42:00,50.0,44.0,30.20,South,175,5.0,12.0,81,-99.99,,,-99.99,,2013-04-26 20:42:00,
2013-04-26 15:52:00,50.0,44.0,30.20,South,175,5.0,12.0,81,-99.99,,,-99.99,,2013-04-26 20:52:00,
2013-04-26 16:11:00,50.0,45.0,30.22,SSE,150,4.0,9.0,83,-99.99,,,-99.99,,2013-04-26 21:11:00,
2013-04-26 16:22:00,50.0,45.0,30.22,SSE,150,4.0,9.0,83,-99.99,,,-99.99,,2013-04-26 21:22:00,
2013-04-26 16:33:00,49.0,45.0,30.20,ESE,105,5.0,7.0,85,-99.99,,,-99.99,,2013-04-26 21:33:00,
2013-04-26 16:42:00,49.0,45.0,30.19,ESE,105,7.0,9.0,86,-99.99,,,-99.99,,2013-04-26 21:42:00,
2013-04-26 16:52:00,49.0,45.0,30.19,ESE,105,7.0,9.0,86,-99.99,,,-99.99,,2013-04-26 21:52:00,
2013-04-26 17:02:00,50.0,46.0,30.21,ESE,120,6.0,9.0,86,-99.99,,,-99.99,,2013-04-26 22:02:00,
2013-04-26 17:12:00,50.0,46.0,30.21,SE,135,4.0,13.0,86,-99.99,,,-99.99,,2013-04-26 22:12:00,
2013-04-26 17:23:00,50.0,46.0,30.21,SE,135,4.0,13.0,86,-99.99,,,-99.99,,2013-04-26 22:23:00,
2013-04-26 17:33:00,50.0,46.0,30.22,South,170,11.0,16.0,86,-99.99,,,-99.99,,2013-04-26 22:33:00,
2013-04-26 17:42:00,50.0,46.0,30.20,SE,145,9.0,13.0,86,-99.99,,,-99.99,,2013-04-26 22:42:00,
2013-04-26 17:52:00,50.0,46.0,30.20,SE,145,9.0,13.0,86,-99.99,,,-99.99,,2013-04-26 22:52:00,
2013-04-26 18:02:00,49.0,46.0,30.21,SSE,160,6.0,14.0,87,-99.99,,,-99.99,,2013-04-26 23:02:00,
2013-04-26 18:11:00,49.0,45.0,30.18,SSE,150,12.0,18.0,87,-99.99,,,-99.99,,2013-04-26 23:11:00,
2013-04-26 18:21:00,49.0,45.0,30.18,SSE,150,12.0,18.0,87,-99.99,,,-99.99,,2013-04-26 23:21:00,
2013-04-26 18:32:00,49.0,46.0,30.19,SE,145,8.0,13.0,88,-99.99,,,-99.99,,2013-04-26 23:32:00,
2013-04-26 18:42:00,49.0,46.0,30.17,SE,140,12.0,17.0,88,-99.99,,,-99.99,,2013-04-26 23:42:00,
2013-04-26 18:52:00,49.0,46.0,30.17,SE,140,12.0,17.0,88,-99.99,,,-99.99,,2013-04-26 23:52:00,
2013-04-26 19:01:00,49.0,46.0,30.18,SE,135,9.0,14.0,88,-99.99,,,-99.99,,2013-04-27 00:01:00,
2013-04-26 19:11:00,49.0,46.0,30.20,SSE,165,9.0,16.0,88,-99.99,,,-99.99,,2013-04-27 00:11:00,
2013-04-26 19:21:00,49.0,46.0,30.20,SSE,165,9.0,16.0,88,-99.99,,,-99.99,,2013-04-27 00:21:00,
2013-04-26 19:32:00,49.0,46.0,30.20,South,170,8.0,15.0,88,-99.99,,,-99.99,,2013-04-27 00:32:00,
2013-04-26 19:42:00,49.0,46.0,30.18,SSE,150,13.0,17.0,88,-99.99,,,-99.99,,2013-04-27 00:42:00,
2013-04-26 19:51:00,49.0,46.0,30.18,SSE,150,13.0,17.0,88,-99.99,,,-99.99,,2013-04-27 00:51:00,
2013-04-26 20:01:00,49.0,46.0,30.17,SSE,155,10.0,17.0,88,-99.99,,,-99.99,,2013-04-27 01:01:00,
2013-04-26 20:12:00,49.0,45.0,30.17,SSE,160,11.0,17.0,88,-99.99,,,-99.99,,2013-04-27 01:12:00,
2013-04-26 20:21:00,49.0,45.0,30.17,SSE,160,11.0,17.0,88,-99.99,,,-99.99,,2013-04-27 01:21:00,
2013-04-26 20:32:00,49.0,46.0,30.16,South,175,12.0,17.0,88,-99.99,,,-99.99,,2013-04-27 01:32:00,
2013-04-26 20:42:00,49.0,45.0,30.16,SSE,165,12.0,18.0,88,-99.99,,,-99.99,,2013-04-27 01:42:00,
2013-04-26 20:52:00,49.0,45.0,30.16,SSE,165,12.0,18.0,88,-99.99,,,-99.99,,2013-04-27 01:52:00,
2013-04-26 21:01:00,49.0,46.0,30.15,South,175,14.0,20.0,88,-99.99,,,-99.99,,2013-04-27 02:01:00,
2013-04-26 21:11:00,49.0,46.0,30.15,South,180,15.0,20.0,88,-99.99,,,-99.99,,2013-04-27 02:11:00,
2013-04-26 21:22:00,49.0,46.0,30.15,South,180,15.0,20.0,88,-99.99,,,-99.99,,2013-04-27 02:22:00,
2013-04-26 21:32:00,49.0,46.0,30.16,South,180,15.0,22.0,88,-99.99,,,-99.99,,2013-04-27 02:32:00,
2013-04-26 21:42:00,49.0,45.0,30.15,South,185,17.0,23.0,87,-99.99,,,-99.99,,2013-04-27 02:42:00,
2013-04-26 21:52:00,49.0,45.0,30.15,South,185,17.0,23.0,87,-99.99,,,-99.99,,2013-04-27 02:52:00,
2013-04-26 22:02:00,49.0,45.0,30.15,South,175,14.0,21.0,87,-99.99,,,-99.99,,2013-04-27 03:02:00,
2013-04-26 22:11:00,49.0,45.0,30.17,South,190,13.0,21.0,87,-99.99,,,-99.99,,2013-04-27 03:11:00,
2013-04-26 22:22:00,49.0,45.0,30.17,South,190,13.0,21.0,87,-99.99,,,-99.99,,2013-04-27 03:22:00,
2013-04-26 22:33:00,49.0,45.0,30.18,SSE,155,9.0,15.0,87,-99.99,,,-99.99,,2013-04-27 03:33:00,
2013-04-26 22:43:00,49.0,45.0,30.18,SSE,155,4.0,14.0,87,-99.99,,,-99.99,,2013-04-27 03:43:00,
2013-04-26 22:53:00,49.0,45.0,30.18,SSE,155,4.0,14.0,87,-99.99,,,-99.99,,2013-04-27 03:53:00,
2013-04-26 23:03:00,49.0,45.0,30.19,South,180,6.0,9.0,87,-99.99,,,-99.99,,2013-04-27 04:03:00,
2013-04-26 23:13:00,49.0,45.0,30.19,SSE,155,8.0,11.0,87,-99.99,,,-99.99,,2013-04-27 04:13:00,
2013-04-26 23:23:00,49.0,45.0,30.19,SSE,155,8.0,11.0,87,-99.99,,,-99.99,,2013-04-27 04:23:00,
2013-04-26 23:33:00,49.0,46.0,30.18,SSE,160,9.0,14.0,88,-99.99,,,-99.99,,2013-04-27 04:33:00,
2013-04-26 23:43:00,49.0,46.0,30.18,SSE,160,9.0,13.0,88,-99.99,,,-99.99,,2013-04-27 04:43:00,
2013-04-26 23:52:00,49.0,46.0,30.18,SSE,160,9.0,13.0,88,-99.99,,,-99.99,,2013-04-27 04:52:00,